Pelham Manor, New York
Current Conditions -  °F | °C
As of 2:51 PM on Friday 21 Nov 2014 (Local Time) from KLGA Reporting Station
Few Clouds Few Clouds  
Wind Chill: 24°   Ceiling: Unl
Heat Index: 36°   Visibility: 10mi
Dew Point: 11°   Wind: 24mph
Humidity: 36%   Direction: 300°WNW
Pressure: 30.32"   Gusts: 30mph
Location:  40.9001°N, 73.8065°W
Report Text: KLGA 211951Z 30021G26KT 10SM FEW060 02/M12 A3032 RMK AO2 PK WND 31027/1852 SLP268 T00221117
Loading
Personal Weather Stations






























Interactive Weather Map New forecast layout! Learn more

10-Day Weather Forecast

Advertisements
Track Severe Weather on mobile